createdAt,value
2022-08-04T00:04:11.035Z,99.90
2022-08-04T00:09:25.049Z,99.90
2022-08-04T00:14:33.963Z,99.90
2022-08-04T00:19:42.532Z,99.90
2022-08-04T00:24:47.316Z,99.90
2022-08-04T00:29:53.023Z,99.90
2022-08-04T00:34:58.155Z,99.90
2022-08-04T00:40:08.110Z,99.90
2022-08-04T00:46:10.487Z,99.90
2022-08-04T00:51:08.207Z,99.90
2022-08-04T00:56:39.370Z,99.90
2022-08-04T01:01:55.207Z,99.90
2022-08-04T01:07:15.064Z,99.90
2022-08-04T01:12:36.205Z,99.90
2022-08-04T01:17:50.396Z,99.90
2022-08-04T01:23:24.551Z,99.90
2022-08-04T01:28:43.041Z,99.90
2022-08-04T01:34:03.493Z,99.90
2022-08-04T01:39:27.792Z,99.90
2022-08-04T01:44:31.615Z,99.90
2022-08-04T01:49:40.008Z,99.90
2022-08-04T01:54:44.132Z,99.90
2022-08-04T01:59:50.084Z,99.90
2022-08-04T02:04:54.417Z,99.90
2022-08-04T02:10:05.038Z,99.90
2022-08-04T02:15:17.184Z,99.90
2022-08-04T02:20:25.383Z,99.90
2022-08-04T02:25:32.513Z,99.90
2022-08-04T02:30:44.166Z,99.90
2022-08-04T02:35:57.325Z,99.90
2022-08-04T02:41:02.212Z,99.90
2022-08-04T02:46:06.144Z,99.90
2022-08-04T02:51:26.025Z,99.90
2022-08-04T02:56:30.600Z,99.90
2022-08-04T03:01:34.463Z,99.90
2022-08-04T03:07:02.302Z,99.90
2022-08-04T03:12:35.042Z,99.90
2022-08-04T03:18:08.422Z,99.90
2022-08-04T03:23:36.514Z,99.90
2022-08-04T03:29:08.465Z,99.90
2022-08-04T03:34:36.967Z,99.90
2022-08-04T03:40:11.341Z,99.90
2022-08-04T03:45:49.741Z,99.90
2022-08-04T03:51:35.428Z,99.90
2022-08-04T03:57:05.509Z,99.90
2022-08-04T04:02:29.056Z,99.90
2022-08-04T04:08:12.582Z,99.90
2022-08-04T04:13:37.261Z,99.90
2022-08-04T04:19:05.084Z,99.90
2022-08-04T04:24:53.132Z,99.90
2022-08-04T04:30:07.752Z,99.90
2022-08-04T04:35:22.997Z,99.90
2022-08-04T04:40:34.754Z,99.90
2022-08-04T04:45:47.184Z,99.90
2022-08-04T04:51:05.847Z,99.90
2022-08-04T04:56:14.763Z,99.90
2022-08-04T05:01:46.229Z,99.90
2022-08-04T05:07:04.603Z,99.90
2022-08-04T05:14:31.306Z,99.90
2022-08-04T05:17:54.076Z,99.90
2022-08-04T05:22:59.872Z,99.90
2022-08-04T05:28:06.168Z,99.90
2022-08-04T05:33:15.251Z,95.10
2022-08-04T05:38:23.358Z,82.50
2022-08-04T05:43:27.319Z,76.10
2022-08-04T05:48:33.317Z,69.10
2022-08-04T05:53:36.737Z,62.80
2022-08-04T05:58:41.460Z,59.40
2022-08-04T06:03:48.945Z,60.30
2022-08-04T06:08:52.318Z,58.00
2022-08-04T06:13:58.616Z,53.80
2022-08-04T06:20:01.809Z,54.20
2022-08-04T06:24:33.003Z,52.60
2022-08-04T06:29:40.775Z,50.60
2022-08-04T06:34:57.763Z,52.60
2022-08-04T06:40:02.686Z,47.20
2022-08-04T06:45:20.710Z,48.90
2022-08-04T06:51:29.706Z,47.10
2022-08-04T06:55:50.317Z,45.40
2022-08-04T07:00:55.781Z,45.50
2022-08-04T07:06:05.737Z,43.60
2022-08-04T07:11:10.093Z,43.50
2022-08-04T07:16:14.957Z,43.20
2022-08-04T07:21:22.554Z,47.90
2022-08-04T07:26:28.951Z,44.90
2022-08-04T07:31:34.212Z,43.20
2022-08-04T07:36:50.008Z,43.50
2022-08-04T07:41:55.223Z,43.70
2022-08-04T07:46:59.281Z,42.20
2022-08-04T07:52:04.423Z,46.10
2022-08-04T07:57:07.729Z,39.00
2022-08-04T08:02:23.747Z,40.00
2022-08-04T08:07:28.406Z,39.80
2022-08-04T08:12:38.549Z,39.10
2022-08-04T08:17:59.646Z,39.20
2022-08-04T08:23:05.151Z,39.40
2022-08-04T08:28:08.414Z,38.20
2022-08-04T08:33:15.118Z,36.10
2022-08-04T08:38:39.597Z,37.20
2022-08-04T08:44:07.220Z,37.70
2022-08-04T08:50:00.554Z,36.90
2022-08-04T08:55:26.571Z,34.80
2022-08-04T09:00:47.958Z,37.40
2022-08-04T09:06:18.855Z,36.10
2022-08-04T09:11:28.322Z,33.50
2022-08-04T09:16:36.592Z,32.90
2022-08-04T09:21:47.972Z,35.10
2022-08-04T09:26:59.903Z,34.20
2022-08-04T09:32:12.073Z,34.10
2022-08-04T09:37:24.845Z,36.00
2022-08-04T09:42:40.391Z,33.70
2022-08-04T09:47:52.037Z,32.80
2022-08-04T09:53:02.886Z,33.80
2022-08-04T09:58:15.912Z,33.10
2022-08-04T10:03:23.096Z,36.10
2022-08-04T10:08:44.535Z,32.20
2022-08-04T10:13:57.624Z,34.00
2022-08-04T10:19:15.163Z,34.70
2022-08-04T10:24:33.042Z,32.90
2022-08-04T10:29:43.586Z,32.10
2022-08-04T10:35:03.162Z,32.80
2022-08-04T10:40:30.729Z,34.90
2022-08-04T10:45:45.094Z,33.20
2022-08-04T10:50:59.924Z,36.00
2022-08-04T10:56:09.716Z,34.40
2022-08-04T11:01:59.601Z,34.90
2022-08-04T11:06:46.475Z,36.90
2022-08-04T11:12:01.299Z,38.20
2022-08-04T11:17:09.776Z,35.30
2022-08-04T11:22:22.005Z,35.20
2022-08-04T11:27:30.086Z,35.40
2022-08-04T11:32:43.324Z,35.70
2022-08-04T11:37:51.865Z,34.30
2022-08-04T11:42:59.775Z,38.50
2022-08-04T11:48:11.221Z,35.60
2022-08-04T11:53:19.579Z,37.70
2022-08-04T11:58:23.043Z,40.00
2022-08-04T12:03:37.756Z,36.30
2022-08-04T12:08:58.158Z,37.00
2022-08-04T12:14:10.040Z,36.70
2022-08-04T12:19:23.999Z,37.20
2022-08-04T12:24:34.354Z,36.10
2022-08-04T12:29:40.666Z,35.30
2022-08-04T12:35:00.744Z,34.60
2022-08-04T12:40:30.755Z,36.10
2022-08-04T12:45:34.995Z,37.50
2022-08-04T12:50:40.209Z,36.10
2022-08-04T12:56:01.686Z,35.80
2022-08-04T13:02:08.098Z,37.40
2022-08-04T13:06:35.721Z,36.50
2022-08-04T13:11:41.782Z,35.70
2022-08-04T13:16:47.467Z,34.80
2022-08-04T13:22:02.709Z,34.90
2022-08-04T13:27:16.326Z,34.50
2022-08-04T13:32:22.518Z,35.70
2022-08-04T13:37:33.471Z,35.50
2022-08-04T13:42:38.789Z,36.50
2022-08-04T13:47:43.393Z,33.20
2022-08-04T13:52:51.487Z,34.90
2022-08-04T13:57:58.946Z,33.80
2022-08-04T14:03:21.753Z,36.70
2022-08-04T14:08:31.668Z,33.30
2022-08-04T14:13:41.050Z,34.90
2022-08-04T14:18:45.941Z,34.90
2022-08-04T14:23:52.365Z,34.70
2022-08-04T14:29:08.378Z,34.70
2022-08-04T14:34:26.869Z,34.30
2022-08-04T14:39:41.011Z,33.80
2022-08-04T14:44:55.418Z,32.90
2022-08-04T14:49:58.653Z,34.10
2022-08-04T14:55:18.182Z,33.20
2022-08-04T15:00:29.666Z,34.10
2022-08-04T15:05:54.797Z,33.10
2022-08-04T15:10:59.009Z,33.90
2022-08-04T15:16:06.656Z,33.30
2022-08-04T15:21:12.330Z,32.70
2022-08-04T15:26:22.693Z,33.00
2022-08-04T15:32:06.918Z,33.80
2022-08-04T15:36:56.773Z,34.50
2022-08-04T15:42:20.488Z,36.50
2022-08-04T15:47:25.158Z,35.80
2022-08-04T15:52:32.074Z,35.20
2022-08-04T15:58:00.148Z,36.30
2022-08-04T16:03:03.503Z,36.50
2022-08-04T16:08:17.015Z,35.10
2022-08-04T16:13:23.040Z,34.60
2022-08-04T16:18:40.405Z,34.80
2022-08-04T16:24:09.824Z,35.30
2022-08-04T16:29:29.106Z,36.10
2022-08-04T16:34:48.501Z,36.00
2022-08-04T16:40:35.875Z,36.90
2022-08-04T16:45:46.470Z,36.30
2022-08-04T16:50:57.829Z,37.90
2022-08-04T16:56:08.926Z,37.30
2022-08-04T17:01:32.231Z,38.20
2022-08-04T17:06:38.673Z,38.30
2022-08-04T17:11:42.695Z,40.30
2022-08-04T17:16:47.126Z,40.00
2022-08-04T17:21:50.610Z,42.60
2022-08-04T17:26:54.965Z,42.20
2022-08-04T17:31:59.717Z,43.60
2022-08-04T17:37:31.595Z,44.90
2022-08-04T17:42:29.800Z,45.00
2022-08-04T17:47:38.131Z,46.50
2022-08-04T17:52:45.290Z,49.60
2022-08-04T17:57:52.195Z,51.90
2022-08-04T18:02:57.180Z,54.00
2022-08-04T18:08:34.623Z,56.60
2022-08-04T18:13:31.371Z,59.40
2022-08-04T18:19:07.838Z,61.50
2022-08-04T18:24:11.555Z,64.20
2022-08-04T18:29:15.610Z,66.20
2022-08-04T18:34:40.904Z,65.60
2022-08-04T18:40:17.437Z,67.60
2022-08-04T18:45:21.364Z,69.80
2022-08-04T18:50:40.054Z,74.30
2022-08-04T18:55:57.530Z,78.00
2022-08-04T19:01:01.432Z,79.70
2022-08-04T19:06:07.586Z,84.10
2022-08-04T19:11:37.154Z,83.40
2022-08-04T19:16:35.047Z,84.20
2022-08-04T19:21:59.322Z,84.50
2022-08-04T19:32:27.576Z,85.70
2022-08-04T19:37:57.688Z,85.90
2022-08-04T19:43:06.202Z,87.20
2022-08-04T19:48:21.349Z,87.90
2022-08-04T19:53:37.738Z,86.70
2022-08-04T19:58:41.990Z,88.30
2022-08-04T20:04:09.131Z,89.10
2022-08-04T20:09:24.505Z,89.00
2022-08-04T20:14:32.127Z,88.70
2022-08-04T20:19:36.159Z,89.90
2022-08-04T20:24:47.960Z,90.30
2022-08-04T20:29:57.865Z,91.90
2022-08-04T20:35:01.001Z,97.20
2022-08-04T20:40:06.677Z,93.70
2022-08-04T20:45:10.912Z,90.70
2022-08-04T20:50:29.591Z,90.30
2022-08-04T20:55:47.223Z,90.50
2022-08-04T21:00:58.205Z,91.00
2022-08-04T21:06:01.660Z,95.90
2022-08-04T21:11:06.998Z,93.90
2022-08-04T21:16:12.110Z,94.80
2022-08-04T21:21:35.809Z,94.60
2022-08-04T21:26:40.337Z,93.00
2022-08-04T21:31:50.244Z,92.60
2022-08-04T21:36:54.272Z,98.70
2022-08-04T21:47:45.867Z,99.90
2022-08-04T21:52:46.087Z,99.90
2022-08-04T21:57:51.522Z,98.20
2022-08-04T22:02:54.632Z,97.90
2022-08-04T22:07:57.791Z,99.90
2022-08-04T22:13:06.867Z,99.90
2022-08-04T22:18:10.676Z,99.90
2022-08-04T22:23:17.063Z,99.90
2022-08-04T22:28:24.510Z,99.90
2022-08-04T22:33:55.235Z,99.90
2022-08-04T22:39:04.445Z,99.90
2022-08-04T22:44:15.506Z,99.90
2022-08-04T22:49:25.225Z,99.90
2022-08-04T22:54:35.057Z,99.90
2022-08-04T22:59:43.160Z,99.90
2022-08-04T23:04:48.986Z,99.90
2022-08-04T23:09:54.296Z,99.90
2022-08-04T23:14:59.331Z,99.90
2022-08-04T23:20:02.361Z,99.90
2022-08-04T23:25:06.637Z,99.90
2022-08-04T23:30:29.937Z,99.90
2022-08-04T23:35:33.510Z,99.90
2022-08-04T23:40:50.616Z,99.90
2022-08-04T23:46:06.844Z,99.90
2022-08-04T23:51:14.422Z,99.90
2022-08-04T23:56:19.767Z,99.90
